sensor_id;sensor_type;location;lat;lon;timestamp;temperature;humidity
53282;DHT22;39167;52.794;6.892;2022-12-29T00:01:37;9.40;99.90
53282;DHT22;39167;52.794;6.892;2022-12-29T00:04:04;9.40;99.90
53282;DHT22;39167;52.794;6.892;2022-12-29T00:06:31;9.40;99.90
53282;DHT22;39167;52.794;6.892;2022-12-29T00:08:57;9.40;99.90
53282;DHT22;39167;52.794;6.892;2022-12-29T00:11:25;9.50;99.90
53282;DHT22;39167;52.794;6.892;2022-12-29T00:13:51;9.50;99.90
53282;DHT22;39167;52.794;6.892;2022-12-29T00:16:36;9.50;99.90
53282;DHT22;39167;52.794;6.892;2022-12-29T00:19:03;9.60;99.90
53282;DHT22;39167;52.794;6.892;2022-12-29T00:21:29;9.60;99.90
53282;DHT22;39167;52.794;6.892;2022-12-29T00:24:18;9.60;99.90
53282;DHT22;39167;52.794;6.892;2022-12-29T00:27:10;9.60;99.90
53282;DHT22;39167;52.794;6.892;2022-12-29T00:29:55;9.60;99.90
53282;DHT22;39167;52.794;6.892;2022-12-29T00:32:39;9.60;99.90
53282;DHT22;39167;52.794;6.892;2022-12-29T00:37:54;9.70;99.90
53282;DHT22;39167;52.794;6.892;2022-12-29T00:40:47;9.70;99.90
53282;DHT22;39167;52.794;6.892;2022-12-29T00:43:31;9.70;99.90
53282;DHT22;39167;52.794;6.892;2022-12-29T00:46:15;9.60;99.90
53282;DHT22;39167;52.794;6.892;2022-12-29T00:48:41;9.70;99.90
53282;DHT22;39167;52.794;6.892;2022-12-29T00:51:25;9.70;99.90
53282;DHT22;39167;52.794;6.892;2022-12-29T00:53:51;9.70;99.90
53282;DHT22;39167;52.794;6.892;2022-12-29T00:56:16;9.70;99.90
53282;DHT22;39167;52.794;6.892;2022-12-29T00:58:42;9.70;99.90
53282;DHT22;39167;52.794;6.892;2022-12-29T01:01:08;9.70;99.90
53282;DHT22;39167;52.794;6.892;2022-12-29T01:03:37;9.70;99.90
53282;DHT22;39167;52.794;6.892;2022-12-29T01:06:05;9.70;99.90
53282;DHT22;39167;52.794;6.892;2022-12-29T01:08:31;9.70;99.90
53282;DHT22;39167;52.794;6.892;2022-12-29T01:11:04;9.80;99.90
53282;DHT22;39167;52.794;6.892;2022-12-29T01:13:30;9.80;99.90
53282;DHT22;39167;52.794;6.892;2022-12-29T01:15:55;9.80;99.90
53282;DHT22;39167;52.794;6.892;2022-12-29T01:18:22;9.80;99.90
53282;DHT22;39167;52.794;6.892;2022-12-29T01:20:48;9.90;99.90
53282;DHT22;39167;52.794;6.892;2022-12-29T01:23:14;9.80;99.90
53282;DHT22;39167;52.794;6.892;2022-12-29T01:25:40;9.90;99.90
53282;DHT22;39167;52.794;6.892;2022-12-29T01:28:06;9.90;99.90
53282;DHT22;39167;52.794;6.892;2022-12-29T01:30:34;9.90;99.90
53282;DHT22;39167;52.794;6.892;2022-12-29T01:33:00;9.90;99.90
53282;DHT22;39167;52.794;6.892;2022-12-29T01:35:27;10.00;99.90
53282;DHT22;39167;52.794;6.892;2022-12-29T01:37:52;10.00;99.90
53282;DHT22;39167;52.794;6.892;2022-12-29T01:40:18;10.00;99.90
53282;DHT22;39167;52.794;6.892;2022-12-29T01:42:44;10.10;99.90
53282;DHT22;39167;52.794;6.892;2022-12-29T01:45:11;10.00;99.90
53282;DHT22;39167;52.794;6.892;2022-12-29T01:47:48;10.10;99.90
53282;DHT22;39167;52.794;6.892;2022-12-29T01:53:00;10.10;99.90
53282;DHT22;39167;52.794;6.892;2022-12-29T01:55:32;10.10;99.90
53282;DHT22;39167;52.794;6.892;2022-12-29T01:58:02;10.10;99.90
53282;DHT22;39167;52.794;6.892;2022-12-29T02:00:29;10.20;99.90
53282;DHT22;39167;52.794;6.892;2022-12-29T02:02:55;10.20;99.90
53282;DHT22;39167;52.794;6.892;2022-12-29T02:05:44;10.20;99.90
53282;DHT22;39167;52.794;6.892;2022-12-29T02:08:13;10.20;99.90
53282;DHT22;39167;52.794;6.892;2022-12-29T02:10:40;10.20;99.90
53282;DHT22;39167;52.794;6.892;2022-12-29T02:13:07;10.20;99.90
53282;DHT22;39167;52.794;6.892;2022-12-29T02:21:17;10.20;99.90
53282;DHT22;39167;52.794;6.892;2022-12-29T02:37:46;10.20;99.90
53282;DHT22;39167;52.794;6.892;2022-12-29T02:42:50;10.20;99.90
53282;DHT22;39167;52.794;6.892;2022-12-29T02:45:29;10.20;99.90
53282;DHT22;39167;52.794;6.892;2022-12-29T02:48:25;10.20;99.90
53282;DHT22;39167;52.794;6.892;2022-12-29T02:50:58;10.10;99.90
53282;DHT22;39167;52.794;6.892;2022-12-29T02:53:26;10.10;99.90
53282;DHT22;39167;52.794;6.892;2022-12-29T02:56:11;10.10;99.90
53282;DHT22;39167;52.794;6.892;2022-12-29T02:58:37;10.00;99.90
53282;DHT22;39167;52.794;6.892;2022-12-29T03:01:29;10.00;99.90
53282;DHT22;39167;52.794;6.892;2022-12-29T03:04:18;10.00;99.90
53282;DHT22;39167;52.794;6.892;2022-12-29T03:09:30;10.00;99.90
53282;DHT22;39167;52.794;6.892;2022-12-29T03:12:21;9.90;99.90
53282;DHT22;39167;52.794;6.892;2022-12-29T03:15:18;9.90;99.90
53282;DHT22;39167;52.794;6.892;2022-12-29T03:18:15;9.90;99.90
53282;DHT22;39167;52.794;6.892;2022-12-29T03:21:07;9.90;99.90
53282;DHT22;39167;52.794;6.892;2022-12-29T03:23:36;9.80;99.90
53282;DHT22;39167;52.794;6.892;2022-12-29T03:26:06;9.90;99.90
53282;DHT22;39167;52.794;6.892;2022-12-29T03:28:38;9.80;99.90
53282;DHT22;39167;52.794;6.892;2022-12-29T03:31:07;9.80;99.90
53282;DHT22;39167;52.794;6.892;2022-12-29T03:33:34;9.80;99.90
53282;DHT22;39167;52.794;6.892;2022-12-29T03:36:04;9.80;99.90
53282;DHT22;39167;52.794;6.892;2022-12-29T03:38:38;9.80;99.90
53282;DHT22;39167;52.794;6.892;2022-12-29T03:41:08;9.80;99.90
53282;DHT22;39167;52.794;6.892;2022-12-29T03:43:36;9.80;99.90
53282;DHT22;39167;52.794;6.892;2022-12-29T03:46:02;9.80;99.90
53282;DHT22;39167;52.794;6.892;2022-12-29T03:48:28;9.80;99.90
53282;DHT22;39167;52.794;6.892;2022-12-29T03:50:53;9.80;99.90
53282;DHT22;39167;52.794;6.892;2022-12-29T03:53:19;9.80;99.90
53282;DHT22;39167;52.794;6.892;2022-12-29T03:55:45;9.80;99.90
53282;DHT22;39167;52.794;6.892;2022-12-29T03:58:11;9.80;99.90
53282;DHT22;39167;52.794;6.892;2022-12-29T04:00:36;9.80;99.90
53282;DHT22;39167;52.794;6.892;2022-12-29T04:03:02;9.80;99.90
53282;DHT22;39167;52.794;6.892;2022-12-29T04:05:28;9.80;99.90
53282;DHT22;39167;52.794;6.892;2022-12-29T04:07:53;9.80;99.90
53282;DHT22;39167;52.794;6.892;2022-12-29T04:10:19;9.80;99.90
53282;DHT22;39167;52.794;6.892;2022-12-29T04:12:45;9.80;99.90
53282;DHT22;39167;52.794;6.892;2022-12-29T04:15:12;9.80;99.90
53282;DHT22;39167;52.794;6.892;2022-12-29T04:17:37;9.90;99.90
53282;DHT22;39167;52.794;6.892;2022-12-29T04:20:04;9.90;99.90
53282;DHT22;39167;52.794;6.892;2022-12-29T04:22:49;9.90;99.90
53282;DHT22;39167;52.794;6.892;2022-12-29T04:25:15;9.90;99.90
53282;DHT22;39167;52.794;6.892;2022-12-29T04:27:40;9.90;99.90
53282;DHT22;39167;52.794;6.892;2022-12-29T04:30:06;9.90;99.90
53282;DHT22;39167;52.794;6.892;2022-12-29T04:32:33;9.90;99.90
53282;DHT22;39167;52.794;6.892;2022-12-29T04:34:59;9.90;99.90
53282;DHT22;39167;52.794;6.892;2022-12-29T04:37:24;10.00;99.90
53282;DHT22;39167;52.794;6.892;2022-12-29T04:39:50;10.00;99.90
53282;DHT22;39167;52.794;6.892;2022-12-29T04:42:15;10.00;99.90
53282;DHT22;39167;52.794;6.892;2022-12-29T04:44:41;10.00;99.90
53282;DHT22;39167;52.794;6.892;2022-12-29T04:47:07;10.00;99.90
53282;DHT22;39167;52.794;6.892;2022-12-29T04:49:32;9.90;99.90
53282;DHT22;39167;52.794;6.892;2022-12-29T04:51:58;9.90;99.90
53282;DHT22;39167;52.794;6.892;2022-12-29T04:54:24;10.00;99.90
53282;DHT22;39167;52.794;6.892;2022-12-29T04:56:49;9.90;99.90
53282;DHT22;39167;52.794;6.892;2022-12-29T04:59:15;10.00;99.90
53282;DHT22;39167;52.794;6.892;2022-12-29T05:01:41;9.90;99.90
53282;DHT22;39167;52.794;6.892;2022-12-29T05:04:07;9.90;99.90
53282;DHT22;39167;52.794;6.892;2022-12-29T05:06:33;9.90;99.90
53282;DHT22;39167;52.794;6.892;2022-12-29T05:08:59;9.90;99.90
53282;DHT22;39167;52.794;6.892;2022-12-29T05:11:24;9.90;99.90
53282;DHT22;39167;52.794;6.892;2022-12-29T05:13:50;9.90;99.90
53282;DHT22;39167;52.794;6.892;2022-12-29T05:16:15;9.90;99.90
53282;DHT22;39167;52.794;6.892;2022-12-29T05:18:41;9.90;99.90
53282;DHT22;39167;52.794;6.892;2022-12-29T05:21:07;9.90;99.90
53282;DHT22;39167;52.794;6.892;2022-12-29T05:23:32;9.90;99.90
53282;DHT22;39167;52.794;6.892;2022-12-29T05:25:58;9.90;99.90
53282;DHT22;39167;52.794;6.892;2022-12-29T05:28:24;9.90;99.90
53282;DHT22;39167;52.794;6.892;2022-12-29T05:30:50;9.90;99.90
53282;DHT22;39167;52.794;6.892;2022-12-29T05:33:17;9.90;99.90
53282;DHT22;39167;52.794;6.892;2022-12-29T05:35:43;9.90;99.90
53282;DHT22;39167;52.794;6.892;2022-12-29T05:38:09;9.90;99.90
53282;DHT22;39167;52.794;6.892;2022-12-29T05:40:35;9.90;99.90
53282;DHT22;39167;52.794;6.892;2022-12-29T05:43:01;9.90;99.90
53282;DHT22;39167;52.794;6.892;2022-12-29T05:45:27;9.90;99.90
53282;DHT22;39167;52.794;6.892;2022-12-29T05:47:52;9.80;99.90
53282;DHT22;39167;52.794;6.892;2022-12-29T05:50:18;9.80;99.90
53282;DHT22;39167;52.794;6.892;2022-12-29T05:52:44;9.80;99.90
53282;DHT22;39167;52.794;6.892;2022-12-29T05:55:11;9.80;99.90
53282;DHT22;39167;52.794;6.892;2022-12-29T05:57:37;9.80;99.90
53282;DHT22;39167;52.794;6.892;2022-12-29T06:00:06;9.80;99.90
53282;DHT22;39167;52.794;6.892;2022-12-29T06:02:32;9.80;99.90
53282;DHT22;39167;52.794;6.892;2022-12-29T06:04:57;9.80;99.90
53282;DHT22;39167;52.794;6.892;2022-12-29T06:07:23;9.80;99.90
53282;DHT22;39167;52.794;6.892;2022-12-29T06:09:49;9.70;99.90
53282;DHT22;39167;52.794;6.892;2022-12-29T06:12:14;9.70;99.90
53282;DHT22;39167;52.794;6.892;2022-12-29T06:14:40;9.70;99.90
53282;DHT22;39167;52.794;6.892;2022-12-29T06:17:06;9.70;99.90
53282;DHT22;39167;52.794;6.892;2022-12-29T06:19:31;9.70;99.90
53282;DHT22;39167;52.794;6.892;2022-12-29T06:21:57;9.70;99.90
53282;DHT22;39167;52.794;6.892;2022-12-29T06:24:23;9.70;99.90
53282;DHT22;39167;52.794;6.892;2022-12-29T06:26:48;9.70;99.90
53282;DHT22;39167;52.794;6.892;2022-12-29T06:29:14;9.70;99.90
53282;DHT22;39167;52.794;6.892;2022-12-29T06:31:44;9.70;99.90
53282;DHT22;39167;52.794;6.892;2022-12-29T06:34:12;9.70;99.90
53282;DHT22;39167;52.794;6.892;2022-12-29T06:36:38;9.70;99.90
53282;DHT22;39167;52.794;6.892;2022-12-29T06:39:05;9.60;99.90
53282;DHT22;39167;52.794;6.892;2022-12-29T06:41:30;9.60;99.90
53282;DHT22;39167;52.794;6.892;2022-12-29T06:43:57;9.60;99.90
53282;DHT22;39167;52.794;6.892;2022-12-29T06:46:23;9.60;99.90
53282;DHT22;39167;52.794;6.892;2022-12-29T06:48:49;9.60;99.90
53282;DHT22;39167;52.794;6.892;2022-12-29T06:51:14;9.60;99.90
53282;DHT22;39167;52.794;6.892;2022-12-29T06:53:40;9.60;99.90
53282;DHT22;39167;52.794;6.892;2022-12-29T06:56:06;9.60;99.90
53282;DHT22;39167;52.794;6.892;2022-12-29T06:58:32;9.60;99.90
53282;DHT22;39167;52.794;6.892;2022-12-29T07:00:58;9.60;99.90
53282;DHT22;39167;52.794;6.892;2022-12-29T07:03:23;9.60;99.90
53282;DHT22;39167;52.794;6.892;2022-12-29T07:05:49;9.60;99.90
53282;DHT22;39167;52.794;6.892;2022-12-29T07:08:15;9.50;99.90
53282;DHT22;39167;52.794;6.892;2022-12-29T07:10:40;9.50;99.90
53282;DHT22;39167;52.794;6.892;2022-12-29T07:13:06;9.50;99.90
53282;DHT22;39167;52.794;6.892;2022-12-29T07:15:33;9.50;99.90
53282;DHT22;39167;52.794;6.892;2022-12-29T07:17:59;9.50;99.90
53282;DHT22;39167;52.794;6.892;2022-12-29T07:20:25;9.50;99.90
53282;DHT22;39167;52.794;6.892;2022-12-29T07:22:51;9.50;99.90
53282;DHT22;39167;52.794;6.892;2022-12-29T07:25:17;9.50;99.90
53282;DHT22;39167;52.794;6.892;2022-12-29T07:27:42;9.40;99.90
53282;DHT22;39167;52.794;6.892;2022-12-29T07:30:08;9.40;99.90
53282;DHT22;39167;52.794;6.892;2022-12-29T07:32:35;9.40;99.90
53282;DHT22;39167;52.794;6.892;2022-12-29T07:35:01;9.40;99.90
53282;DHT22;39167;52.794;6.892;2022-12-29T07:37:27;9.40;99.90
53282;DHT22;39167;52.794;6.892;2022-12-29T07:39:53;9.40;99.90
53282;DHT22;39167;52.794;6.892;2022-12-29T07:42:18;9.40;99.90
53282;DHT22;39167;52.794;6.892;2022-12-29T07:44:44;9.30;99.90
53282;DHT22;39167;52.794;6.892;2022-12-29T07:47:10;9.30;99.90
53282;DHT22;39167;52.794;6.892;2022-12-29T07:49:35;9.30;99.90
53282;DHT22;39167;52.794;6.892;2022-12-29T07:52:01;9.30;99.90
53282;DHT22;39167;52.794;6.892;2022-12-29T07:54:27;9.30;99.90
53282;DHT22;39167;52.794;6.892;2022-12-29T07:56:52;9.30;99.90
53282;DHT22;39167;52.794;6.892;2022-12-29T07:59:18;9.30;99.90
53282;DHT22;39167;52.794;6.892;2022-12-29T08:01:44;9.30;99.90
53282;DHT22;39167;52.794;6.892;2022-12-29T08:04:09;9.30;99.90
53282;DHT22;39167;52.794;6.892;2022-12-29T08:06:35;9.30;99.90
53282;DHT22;39167;52.794;6.892;2022-12-29T08:09:01;9.30;99.90
53282;DHT22;39167;52.794;6.892;2022-12-29T08:11:27;9.30;99.90
53282;DHT22;39167;52.794;6.892;2022-12-29T08:13:53;9.30;99.90
53282;DHT22;39167;52.794;6.892;2022-12-29T08:16:18;9.30;99.90
53282;DHT22;39167;52.794;6.892;2022-12-29T08:18:44;9.30;99.90
53282;DHT22;39167;52.794;6.892;2022-12-29T08:21:10;9.30;99.90
53282;DHT22;39167;52.794;6.892;2022-12-29T08:23:36;9.30;99.90
53282;DHT22;39167;52.794;6.892;2022-12-29T08:26:04;9.20;99.90
53282;DHT22;39167;52.794;6.892;2022-12-29T08:28:31;9.20;99.90
53282;DHT22;39167;52.794;6.892;2022-12-29T08:31:01;9.20;99.90
53282;DHT22;39167;52.794;6.892;2022-12-29T08:33:28;9.20;99.90
53282;DHT22;39167;52.794;6.892;2022-12-29T08:36:05;9.20;99.90
53282;DHT22;39167;52.794;6.892;2022-12-29T08:38:32;9.20;99.90
53282;DHT22;39167;52.794;6.892;2022-12-29T08:40:58;9.20;99.90
53282;DHT22;39167;52.794;6.892;2022-12-29T08:43:25;9.20;99.90
53282;DHT22;39167;52.794;6.892;2022-12-29T08:45:50;9.20;99.90
53282;DHT22;39167;52.794;6.892;2022-12-29T08:48:16;9.20;99.90
53282;DHT22;39167;52.794;6.892;2022-12-29T08:50:48;9.20;99.90
53282;DHT22;39167;52.794;6.892;2022-12-29T08:53:15;9.20;99.90
53282;DHT22;39167;52.794;6.892;2022-12-29T08:55:41;9.20;99.90
53282;DHT22;39167;52.794;6.892;2022-12-29T08:58:06;9.20;99.90
53282;DHT22;39167;52.794;6.892;2022-12-29T09:00:32;9.20;99.90
53282;DHT22;39167;52.794;6.892;2022-12-29T09:02:58;9.20;99.90
53282;DHT22;39167;52.794;6.892;2022-12-29T09:05:24;9.20;99.90
53282;DHT22;39167;52.794;6.892;2022-12-29T09:07:49;9.20;99.90
53282;DHT22;39167;52.794;6.892;2022-12-29T09:10:15;9.20;99.90
53282;DHT22;39167;52.794;6.892;2022-12-29T09:12:41;9.20;99.90
53282;DHT22;39167;52.794;6.892;2022-12-29T09:15:07;9.20;99.90
53282;DHT22;39167;52.794;6.892;2022-12-29T09:17:33;9.20;99.90
53282;DHT22;39167;52.794;6.892;2022-12-29T09:20:09;9.20;99.90
53282;DHT22;39167;52.794;6.892;2022-12-29T09:22:36;9.20;99.90
53282;DHT22;39167;52.794;6.892;2022-12-29T09:25:02;9.20;99.90
53282;DHT22;39167;52.794;6.892;2022-12-29T09:27:27;8.90;99.90
53282;DHT22;39167;52.794;6.892;2022-12-29T09:29:53;9.20;99.90
53282;DHT22;39167;52.794;6.892;2022-12-29T09:32:19;9.20;99.90
53282;DHT22;39167;52.794;6.892;2022-12-29T09:34:44;9.20;99.90
53282;DHT22;39167;52.794;6.892;2022-12-29T09:37:10;9.20;99.90
53282;DHT22;39167;52.794;6.892;2022-12-29T09:39:36;9.20;99.90
53282;DHT22;39167;52.794;6.892;2022-12-29T09:42:27;9.10;99.90
53282;DHT22;39167;52.794;6.892;2022-12-29T09:45:14;9.10;99.90
53282;DHT22;39167;52.794;6.892;2022-12-29T09:47:42;9.10;99.90
53282;DHT22;39167;52.794;6.892;2022-12-29T09:50:32;9.10;99.90
53282;DHT22;39167;52.794;6.892;2022-12-29T09:53:02;9.00;99.90
53282;DHT22;39167;52.794;6.892;2022-12-29T09:55:47;9.00;99.90
53282;DHT22;39167;52.794;6.892;2022-12-29T10:01:06;9.00;99.90
53282;DHT22;39167;52.794;6.892;2022-12-29T10:03:50;9.00;99.90
53282;DHT22;39167;52.794;6.892;2022-12-29T10:09:26;9.00;99.90
53282;DHT22;39167;52.794;6.892;2022-12-29T10:15:12;9.10;99.90
53282;DHT22;39167;52.794;6.892;2022-12-29T10:17:53;9.10;99.90
53282;DHT22;39167;52.794;6.892;2022-12-29T10:20:46;9.10;99.90
53282;DHT22;39167;52.794;6.892;2022-12-29T10:23:42;9.10;99.90
53282;DHT22;39167;52.794;6.892;2022-12-29T10:26:15;9.20;99.90
53282;DHT22;39167;52.794;6.892;2022-12-29T10:28:56;9.20;99.90
53282;DHT22;39167;52.794;6.892;2022-12-29T10:31:58;9.20;99.90
53282;DHT22;39167;52.794;6.892;2022-12-29T10:34:25;9.30;99.90
53282;DHT22;39167;52.794;6.892;2022-12-29T10:37:03;9.30;99.90
53282;DHT22;39167;52.794;6.892;2022-12-29T10:39:38;9.30;99.90
53282;DHT22;39167;52.794;6.892;2022-12-29T10:42:54;9.30;99.90
53282;DHT22;39167;52.794;6.892;2022-12-29T10:45:03;9.30;99.90
53282;DHT22;39167;52.794;6.892;2022-12-29T10:47:35;9.30;99.90
53282;DHT22;39167;52.794;6.892;2022-12-29T10:50:03;9.30;99.90
53282;DHT22;39167;52.794;6.892;2022-12-29T10:52:31;9.30;99.90
53282;DHT22;39167;52.794;6.892;2022-12-29T10:57:31;9.30;99.90
53282;DHT22;39167;52.794;6.892;2022-12-29T10:59:58;9.30;99.90
53282;DHT22;39167;52.794;6.892;2022-12-29T11:07:42;9.20;99.90
53282;DHT22;39167;52.794;6.892;2022-12-29T11:13:02;9.20;99.90
53282;DHT22;39167;52.794;6.892;2022-12-29T11:15:38;9.20;99.90
53282;DHT22;39167;52.794;6.892;2022-12-29T11:18:05;9.20;99.90
53282;DHT22;39167;52.794;6.892;2022-12-29T11:20:41;9.20;99.90
53282;DHT22;39167;52.794;6.892;2022-12-29T11:23:33;9.10;99.90
53282;DHT22;39167;52.794;6.892;2022-12-29T11:26:30;9.10;99.90
53282;DHT22;39167;52.794;6.892;2022-12-29T11:29:21;9.10;99.90
53282;DHT22;39167;52.794;6.892;2022-12-29T11:31:52;9.00;99.90
53282;DHT22;39167;52.794;6.892;2022-12-29T11:34:21;9.10;99.90
53282;DHT22;39167;52.794;6.892;2022-12-29T11:36:49;9.00;99.90
53282;DHT22;39167;52.794;6.892;2022-12-29T11:41:56;9.00;99.90
53282;DHT22;39167;52.794;6.892;2022-12-29T11:44:23;9.00;99.90
53282;DHT22;39167;52.794;6.892;2022-12-29T11:46:51;9.00;99.90
53282;DHT22;39167;52.794;6.892;2022-12-29T11:49:23;9.00;99.90
53282;DHT22;39167;52.794;6.892;2022-12-29T11:51:51;9.00;99.90
53282;DHT22;39167;52.794;6.892;2022-12-29T11:54:40;9.00;99.90
53282;DHT22;39167;52.794;6.892;2022-12-29T11:57:15;9.00;99.90
53282;DHT22;39167;52.794;6.892;2022-12-29T11:59:50;9.00;99.90
53282;DHT22;39167;52.794;6.892;2022-12-29T12:04:45;9.00;99.90
53282;DHT22;39167;52.794;6.892;2022-12-29T12:07:43;9.00;99.90
53282;DHT22;39167;52.794;6.892;2022-12-29T12:10:58;9.00;99.90
53282;DHT22;39167;52.794;6.892;2022-12-29T12:13:42;9.00;99.90
53282;DHT22;39167;52.794;6.892;2022-12-29T12:16:18;9.00;99.90
53282;DHT22;39167;52.794;6.892;2022-12-29T12:18:52;9.10;99.90
53282;DHT22;39167;52.794;6.892;2022-12-29T12:21:39;9.10;99.90
53282;DHT22;39167;52.794;6.892;2022-12-29T12:29:32;9.20;99.90
53282;DHT22;39167;52.794;6.892;2022-12-29T12:32:34;9.20;99.90
53282;DHT22;39167;52.794;6.892;2022-12-29T12:34:51;9.30;99.90
53282;DHT22;39167;52.794;6.892;2022-12-29T12:37:52;9.30;99.90
53282;DHT22;39167;52.794;6.892;2022-12-29T13:00:09;8.90;99.90
53282;DHT22;39167;52.794;6.892;2022-12-29T13:08:38;8.60;99.90
53282;DHT22;39167;52.794;6.892;2022-12-29T13:22:33;8.80;99.90
53282;DHT22;39167;52.794;6.892;2022-12-29T13:25:22;8.80;99.90
53282;DHT22;39167;52.794;6.892;2022-12-29T13:31:14;8.90;99.90
53282;DHT22;39167;52.794;6.892;2022-12-29T13:33:52;8.90;99.90
53282;DHT22;39167;52.794;6.892;2022-12-29T13:42:12;8.90;99.90
53282;DHT22;39167;52.794;6.892;2022-12-29T13:44:54;8.90;99.90
53282;DHT22;39167;52.794;6.892;2022-12-29T13:47:36;8.90;99.90
53282;DHT22;39167;52.794;6.892;2022-12-29T13:50:06;8.90;99.90
53282;DHT22;39167;52.794;6.892;2022-12-29T13:58:03;8.90;99.90
53282;DHT22;39167;52.794;6.892;2022-12-29T14:01:00;8.90;99.90
53282;DHT22;39167;52.794;6.892;2022-12-29T14:08:42;8.80;99.90
53282;DHT22;39167;52.794;6.892;2022-12-29T14:11:10;8.30;99.90
53282;DHT22;39167;52.794;6.892;2022-12-29T14:13:41;8.80;99.90
53282;DHT22;39167;52.794;6.892;2022-12-29T14:16:22;8.80;99.90
53282;DHT22;39167;52.794;6.892;2022-12-29T14:18:50;8.70;99.90
53282;DHT22;39167;52.794;6.892;2022-12-29T14:23:44;8.70;99.90
53282;DHT22;39167;52.794;6.892;2022-12-29T14:31:46;8.60;99.90
53282;DHT22;39167;52.794;6.892;2022-12-29T14:37:03;8.60;99.90
53282;DHT22;39167;52.794;6.892;2022-12-29T14:39:42;8.60;99.90
53282;DHT22;39167;52.794;6.892;2022-12-29T14:42:15;8.70;99.90
53282;DHT22;39167;52.794;6.892;2022-12-29T14:45:00;8.60;99.90
53282;DHT22;39167;52.794;6.892;2022-12-29T14:47:31;8.60;99.90
53282;DHT22;39167;52.794;6.892;2022-12-29T14:52:54;8.70;99.90
53282;DHT22;39167;52.794;6.892;2022-12-29T14:55:38;8.70;99.90
53282;DHT22;39167;52.794;6.892;2022-12-29T14:58:17;8.70;99.90
53282;DHT22;39167;52.794;6.892;2022-12-29T15:00:45;8.60;99.90
53282;DHT22;39167;52.794;6.892;2022-12-29T15:03:16;8.60;99.90
53282;DHT22;39167;52.794;6.892;2022-12-29T15:05:52;8.60;99.90
53282;DHT22;39167;52.794;6.892;2022-12-29T15:08:24;8.60;99.90
53282;DHT22;39167;52.794;6.892;2022-12-29T15:10:58;8.60;99.90
53282;DHT22;39167;52.794;6.892;2022-12-29T15:13:37;8.60;99.90
53282;DHT22;39167;52.794;6.892;2022-12-29T15:16:04;8.60;99.90
53282;DHT22;39167;52.794;6.892;2022-12-29T15:18:32;8.60;99.90
53282;DHT22;39167;52.794;6.892;2022-12-29T15:23:25;8.60;99.90
53282;DHT22;39167;52.794;6.892;2022-12-29T15:25:55;8.60;99.90
53282;DHT22;39167;52.794;6.892;2022-12-29T15:28:22;8.60;99.90
53282;DHT22;39167;52.794;6.892;2022-12-29T15:31:02;8.50;99.90
53282;DHT22;39167;52.794;6.892;2022-12-29T15:33:29;8.60;99.90
53282;DHT22;39167;52.794;6.892;2022-12-29T15:35:56;8.50;99.90
53282;DHT22;39167;52.794;6.892;2022-12-29T15:38:28;8.60;99.90
53282;DHT22;39167;52.794;6.892;2022-12-29T15:46:30;8.60;99.90
53282;DHT22;39167;52.794;6.892;2022-12-29T15:48:56;8.50;99.90
53282;DHT22;39167;52.794;6.892;2022-12-29T15:51:30;8.50;99.90
53282;DHT22;39167;52.794;6.892;2022-12-29T15:53:57;8.50;99.90
53282;DHT22;39167;52.794;6.892;2022-12-29T15:56:24;8.50;99.90
53282;DHT22;39167;52.794;6.892;2022-12-29T15:58:51;8.50;99.90
53282;DHT22;39167;52.794;6.892;2022-12-29T16:01:23;8.50;99.90
53282;DHT22;39167;52.794;6.892;2022-12-29T16:03:51;8.50;99.90
53282;DHT22;39167;52.794;6.892;2022-12-29T16:06:37;8.40;99.90
53282;DHT22;39167;52.794;6.892;2022-12-29T16:09:18;8.40;99.90
53282;DHT22;39167;52.794;6.892;2022-12-29T16:12:05;8.40;99.90
53282;DHT22;39167;52.794;6.892;2022-12-29T16:14:41;8.40;99.90
53282;DHT22;39167;52.794;6.892;2022-12-29T16:17:12;8.40;99.90
53282;DHT22;39167;52.794;6.892;2022-12-29T16:19:40;8.40;99.90
53282;DHT22;39167;52.794;6.892;2022-12-29T16:22:12;8.40;99.90
53282;DHT22;39167;52.794;6.892;2022-12-29T16:24:42;8.40;99.90
53282;DHT22;39167;52.794;6.892;2022-12-29T16:27:19;8.40;99.90
53282;DHT22;39167;52.794;6.892;2022-12-29T16:29:45;8.40;99.90
53282;DHT22;39167;52.794;6.892;2022-12-29T16:32:25;8.30;99.90
53282;DHT22;39167;52.794;6.892;2022-12-29T16:35:17;8.30;99.90
53282;DHT22;39167;52.794;6.892;2022-12-29T16:37:38;8.30;99.90
53282;DHT22;39167;52.794;6.892;2022-12-29T16:40:24;8.30;99.90
53282;DHT22;39167;52.794;6.892;2022-12-29T16:42:55;8.30;99.90
53282;DHT22;39167;52.794;6.892;2022-12-29T16:48:16;8.20;99.90
53282;DHT22;39167;52.794;6.892;2022-12-29T16:50:44;8.20;99.90
53282;DHT22;39167;52.794;6.892;2022-12-29T16:55:48;8.20;99.90
53282;DHT22;39167;52.794;6.892;2022-12-29T16:58:32;8.20;99.90
53282;DHT22;39167;52.794;6.892;2022-12-29T17:01:03;8.20;99.90
53282;DHT22;39167;52.794;6.892;2022-12-29T17:03:37;8.20;99.90
53282;DHT22;39167;52.794;6.892;2022-12-29T17:06:04;8.20;99.90
53282;DHT22;39167;52.794;6.892;2022-12-29T17:08:39;8.10;99.90
53282;DHT22;39167;52.794;6.892;2022-12-29T17:11:35;8.20;99.90
53282;DHT22;39167;52.794;6.892;2022-12-29T17:14:36;8.20;99.90
53282;DHT22;39167;52.794;6.892;2022-12-29T17:17:09;8.10;99.90
53282;DHT22;39167;52.794;6.892;2022-12-29T17:19:37;8.10;99.90
53282;DHT22;39167;52.794;6.892;2022-12-29T17:22:10;8.20;99.90
53282;DHT22;39167;52.794;6.892;2022-12-29T17:24:37;8.10;99.90
53282;DHT22;39167;52.794;6.892;2022-12-29T17:27:03;8.10;99.90
53282;DHT22;39167;52.794;6.892;2022-12-29T17:31:58;8.10;99.90
53282;DHT22;39167;52.794;6.892;2022-12-29T17:34:24;8.10;99.90
53282;DHT22;39167;52.794;6.892;2022-12-29T17:36:50;8.10;99.90
53282;DHT22;39167;52.794;6.892;2022-12-29T17:39:16;8.10;99.90
53282;DHT22;39167;52.794;6.892;2022-12-29T17:41:42;8.50;99.90
53282;DHT22;39167;52.794;6.892;2022-12-29T17:44:15;8.10;99.90
53282;DHT22;39167;52.794;6.892;2022-12-29T17:46:41;8.10;99.90
53282;DHT22;39167;52.794;6.892;2022-12-29T17:49:12;8.50;99.90
53282;DHT22;39167;52.794;6.892;2022-12-29T17:51:39;8.10;99.90
53282;DHT22;39167;52.794;6.892;2022-12-29T17:54:17;8.10;99.90
53282;DHT22;39167;52.794;6.892;2022-12-29T17:56:44;8.10;99.90
53282;DHT22;39167;52.794;6.892;2022-12-29T17:59:13;8.10;99.90
53282;DHT22;39167;52.794;6.892;2022-12-29T18:01:43;8.10;99.90
53282;DHT22;39167;52.794;6.892;2022-12-29T18:04:17;8.10;99.90
53282;DHT22;39167;52.794;6.892;2022-12-29T18:06:44;8.10;99.90
53282;DHT22;39167;52.794;6.892;2022-12-29T18:09:11;8.10;99.90
53282;DHT22;39167;52.794;6.892;2022-12-29T18:11:42;8.10;99.90
53282;DHT22;39167;52.794;6.892;2022-12-29T18:14:13;8.00;99.90
53282;DHT22;39167;52.794;6.892;2022-12-29T18:16:38;8.00;99.90
53282;DHT22;39167;52.794;6.892;2022-12-29T18:19:04;7.90;99.90
53282;DHT22;39167;52.794;6.892;2022-12-29T18:21:30;7.90;99.90
53282;DHT22;39167;52.794;6.892;2022-12-29T18:23:56;7.90;99.90
53282;DHT22;39167;52.794;6.892;2022-12-29T18:26:24;7.70;99.90
53282;DHT22;39167;52.794;6.892;2022-12-29T18:28:50;7.70;99.90
53282;DHT22;39167;52.794;6.892;2022-12-29T18:31:23;7.60;99.90
53282;DHT22;39167;52.794;6.892;2022-12-29T18:33:50;7.60;99.90
53282;DHT22;39167;52.794;6.892;2022-12-29T18:36:17;7.60;99.90